Tiempo atmosférico en la estación meteorológica de Daroca, Zaragoza (779 m.)



Fecha
DESCASC
Temp. máxima en grados centígrados (hora)
DESCASC
Temp. mínima en grados centígrados (hora)
DESCASC
Temp. media en grados centígrados
DESCASC
Racha de viento máxima en m/sg (hora)
DESCASC
Velocidad máxima media en intervalos de 10 minutos(hora)
DESCASC
Precipitaciones diarias en mm
DESCASC
Precipitaciones de 00:00 a 06:00 en mm
DESCASC
Precipitaciones de 06:00 a 12:00 en mm
DESCASC
Precipitaciones de 12:00 a 18:00 en mm
DESCASC
Precipitaciones de 18:00 a 24:00 en mm
DESCASC
28-02-2021 15.1 (15:20) 3.8 (02:10) 9.5 10.28 (17:30) 3.33 (17:30) 0 0 0 0 0
27-02-2021 15.4 (15:30) 1 (04:50) 8.2 6.67 (16:10) 3.33 (16:10) 0 0 0 0 0
26-02-2021 15.2 (15:50) 2.7 (02:30) 8.9 6.67 (16:30) 3.33 (16:30) 0 0 0 0 0
25-02-2021 15.8 (13:40) 2.7 (00:00) 9.3 8.06 (15:40) 3.89 (15:40) 0 0 0 0 0
24-02-2021 19 (15:50) 4.2 (00:00) 11.6 8.33 (16:10) 3.06 (14:50) 0 0 0 0 0
23-02-2021 16 (16:30) 4.5 (00:00) 10.3 7.5 (17:50) 3.06 (17:50) 0 0 0 0 0
22-02-2021 9.9 (00:00) 4.5 (00:00) 7.2 8.33 (04:10) 4.17 (05:50) 1.6 1.2 0.2 0.2 0
21-02-2021 15.1 (13:30) 8.1 (00:00) 11.6 10.56 (14:30) 4.44 (14:30) 0 0 0 0 0
20-02-2021 21.3 (15:30) 1.9 (00:00) 11.6 10.56 (17:00) 3.33 (11:00) 0 0 0 0 0
19-02-2021 18.8 (16:20) 0.6 (00:00) 9.7 11.11 (14:30) 5.83 (14:10) 0 0 0 0 0
18-02-2021 18.3 (14:50) 1.3 (00:00) 9.8 12.5 (15:00) 6.67 (15:20) 0 0 0 0 0
17-02-2021 19.1 (15:50) 2.2 (00:00) 10.7 11.67 (15:50) 6.39 (15:50) 0 0 0 0 0
16-02-2021 20.1 (15:30) 2.7 (00:00) 11.4 11.94 (16:00) 6.67 (16:00) 0 0 0 0 0
15-02-2021 16.9 (16:20) 4.1 (00:00) 10.5 5.83 (11:50) 2.22 (18:00) 0 0 0 0 0
14-02-2021 16.8 (16:00) -1.3 (-00:0) 7.7 6.94 (18:00) 3.06 (16:50) 0 0 0 0 0
13-02-2021 12.1 (16:30) 1.2 (00:00) 6.7 9.44 (15:20) 4.17 (15:10) 0 0 0 0 0
12-02-2021 11.6 (13:40) 5.4 (00:00) 8.5 13.06 (13:00) 6.11 (13:00) 1.8 0 1.6 0.2 0
11-02-2021 14.5 (15:20) 0.9 (00:00) 7.7 10.28 (13:40) 4.72 (13:40) 0 0 0 0 0
10-02-2021 11 (16:00) 1.8 (00:00) 6.4 15 (03:50) 7.78 (04:00) 7 5.6 1.4 0 0
09-02-2021 12.1 (14:30) 4.1 (00:00) 8.1 21.67 (16:00) 9.72 (16:30) 4.8 0 0 1.8 3
08-02-2021 9.8 (15:00) 5.6 (00:00) 7.7 14.72 (10:20) 8.33 (10:40) 0.8 0 0.2 0.4 0.2
07-02-2021 8.9 (15:30) 3.1 (00:00) 6 10 (15:30) 5 (15:50) 0 0 0 0 0
06-02-2021 12.1 (15:50) 4.7 (00:00) 8.4 6.94 (04:30) 3.33 (04:30) 10 1 0 4.4 4.6
05-02-2021 18.6 (14:40) 4.2 (00:00) 11.4 9.17 (14:50) 2.78 (12:50) 0 0 0 0 0
04-02-2021 19.3 (16:10) 6.6 (00:00) 12.9 9.17 (17:00) 5.28 (17:30) 0 0 0 0 0
03-02-2021 15.2 (15:40) 8.8 (00:00) 12 13.89 (13:20) 6.11 (13:30) 0 0 0 0 0
02-02-2021 14.7 (15:10) 6.3 (03:50) 10.5 11.67 (14:10) 6.11 (11:10) 0 0 0 0 0
01-02-2021 14.8 (16:00) 9.4 (00:00) 12.1 18.89 (01:20) 7.5 (01:40) 0 0 0 0 0

Gráficas

Temp. máximas Temp. mínimas Temp. medias Precipitaciones Rachas de viento máximas Velocidades máximas media en intervalos de 10 minutos

Datos horarios

Fecha y hora oficial Temperatura (ºC) Velocidad del viento (km/h) Dirección del viento Racha (km/h) Dirección de racha Precipitación (mm) Presión (hPa) Tendencia (hPa) Humedad (%)
2021-03-02 23:00:00 6.9 0 Calma 7 Este 0 -- -- 88
2021-03-02 22:00:00 7.2 2 Nordeste 5 Nordeste 0 -- -- 87
2021-03-02 21:00:00 8.1 0 Calma 11 Este 0 -- -- 85
2021-03-02 20:00:00 8.6 2 Norte 14 Nordeste 0 -- -- 83
2021-03-02 19:00:00 9.1 6 Nordeste 20 Norte 0 -- -- 81
2021-03-02 18:00:00 10.2 7 Nordeste 20 Nordeste 0 -- -- 76
2021-03-02 17:00:00 10.9 9 Nordeste 19 Nordeste 0 -- -- 71
2021-03-02 16:00:00 10.7 8 Nordeste 24 Este 0 -- -- 70
2021-03-02 15:00:00 11.1 9 Este 22 Nordeste 0 -- -- 65
2021-03-02 14:00:00 11.1 9 Nordeste 21 Nordeste 0 -- -- 64
2021-03-02 13:00:00 11.5 6 Este 15 Nordeste 0 -- -- 58
2021-03-02 12:00:00 10.9 3 Este 14 Sudoeste 0 -- -- 62
2021-03-02 11:00:00 10.1 4 Nordeste 9 Norte 0 -- -- 68
2021-03-02 10:00:00 8.1 0 Calma 4 Sudoeste 0 -- -- 80
2021-03-02 09:00:00 7.3 0 Calma 6 Sudeste 0 -- -- 82
2021-03-02 08:00:00 6.8 2 Sur 12 Sudeste 0 -- -- 84
2021-03-02 07:00:00 6.6 2 Nordeste 9 Este 0 -- -- 86
2021-03-02 06:00:00 6.8 0 Calma 5 Sur 0.2 -- -- 86
2021-03-02 05:00:00 6.9 0 Calma 12 Nordeste 0 -- -- 86
2021-03-02 04:00:00 6.8 3 Nordeste 11 Nordeste 0 -- -- 87
2021-03-02 03:00:00 7.1 6 Nordeste 12 Este 0 -- -- 87
2021-03-02 02:00:00 6.3 5 Nordeste 10 Este 0 -- -- 87
2021-03-02 01:00:00 6.3 2 Nordeste 6 Nordeste 0 -- -- 85
2021-03-02 00:00:00 6.6 3 Este 6 Nordeste 0 -- -- 83
2021-03-01 23:00:00 7.2 0 Calma 7 Norte 0 -- -- 80
2021-03-01 22:00:00 7.7 2 Nordeste 13 Nordeste 0 -- -- 79
2021-03-01 21:00:00 7.9 6 Nordeste 14 Nordeste 0 -- -- 78
2021-03-01 20:00:00 8.5 5 Nordeste 13 Nordeste 0 -- -- 77
2021-03-01 19:00:00 8.8 6 Nordeste 22 Este 0 -- -- 75
2021-03-01 18:00:00 9 12 Nordeste 31 Este 0 -- -- 79
2021-03-01 17:00:00 9.4 8 Nordeste 22 Este 0.2 -- -- 77
2021-03-01 16:00:00 9.5 10 Este 25 Nordeste 0 -- -- 78
2021-03-01 15:00:00 9.9 8 Nordeste 28 Este 0 -- -- 75
2021-03-01 14:00:00 10.4 12 Este 30 Este 0 -- -- 69
2021-03-01 13:00:00 10.3 10 Nordeste 24 Nordeste 0 -- -- 68
2021-03-01 12:00:00 9.3 10 Este 25 Este 0 -- -- 71
2021-03-01 11:00:00 8.5 8 Nordeste 22 Este 0 -- -- 73
2021-03-01 10:00:00 8.3 8 Nordeste 19 Este 0 -- -- 72
2021-03-01 09:00:00 6.4 4 Este 10 Este 0 -- -- 80
2021-03-01 08:00:00 5.3 3 Sudeste 8 Nordeste 0 -- -- 77
2021-03-01 07:00:00 5.9 3 Nordeste 9 Este 0 -- -- 74
2021-03-01 06:00:00 5.6 0 Calma 6 Nordeste 0 -- -- 74
2021-03-01 05:00:00 5.6 0 Calma 9 Nordeste 0 -- -- 73
2021-03-01 04:00:00 4.6 0 Calma 4 Nordeste 0 -- -- 80
2021-03-01 03:00:00 3.5 2 Este 5 Este 0 -- -- 85
2021-03-01 02:00:00 3.6 3 Este 5 Sudeste 0 -- -- 84
2021-03-01 01:00:00 3.9 2 Nordeste 11 Este 0 -- -- 83
2021-03-01 00:00:00 4.4 3 Nordeste 9 Nordeste 0 -- -- 80
2021-02-28 23:00:00 6.2 4 Nordeste 13 Nordeste 0 -- -- 76
2021-02-28 22:00:00 7.3 3 Nordeste 12 Sudeste 0 -- -- 75
2021-02-28 21:00:00 8 3 Nordeste 16 Sudeste 0 -- -- 70
2021-02-28 20:00:00 9.1 4 Este 24 Sudeste 0 -- -- 66
2021-02-28 19:00:00 10.3 4 Norte 28 Sudeste 0 -- -- 62
2021-02-28 18:00:00 11.8 11 Sudeste 37 Sudeste 0 -- -- 56
2021-02-28 17:00:00 14 7 Sudeste 31 Sur 0 -- -- 49
2021-02-28 16:00:00 14.2 9 Este 28 Sudeste 0 -- -- 47
2021-02-28 15:00:00 14.9 7 Noroeste 35 Oeste 0 -- -- 42
2021-02-28 14:00:00 13.9 8 Sudoeste 27 Sudoeste 0 -- -- 43
2021-02-28 13:00:00 12.1 7 Este 22 Sudeste 0 -- -- 52
2021-02-28 12:00:00 11.8 8 Sur 28 Sudeste 0 -- -- 50
2021-02-28 11:00:00 10.6 8 Sur 23 Sudoeste 0 -- -- 55
2021-02-28 10:00:00 7.7 4 Nordeste 19 Este 0 -- -- 68
2021-02-28 09:00:00 5.4 3 Nordeste 6 Nordeste 0 -- -- 77
2021-02-28 08:00:00 5 2 Nordeste 9 Este 0 -- -- 77
2021-02-28 07:00:00 4.9 3 Nordeste 12 Nordeste 0 -- -- 77
2021-02-28 06:00:00 4.9 3 Este 7 Sudeste 0 -- -- 77
2021-02-28 05:00:00 4.6 0 Calma 6 Sudeste 0 -- -- 77
2021-02-28 04:00:00 4 0 Calma 6 Noroeste 0 -- -- 78
2021-02-28 03:00:00 3.9 0 Calma 9 Nordeste 0 -- -- 78
2021-02-28 02:00:00 3.9 0 Calma 14 Sudeste 0 -- -- 76
2021-02-28 01:00:00 4.2 2 Este 12 Sudeste 0 -- -- 75
2021-02-28 00:00:00 4.3 0 Calma 5 Nordeste 0 -- -- 77
2021-02-27 23:00:00 5.1 0 Calma 7 Noroeste 0 -- -- 76
2021-02-27 22:00:00 5.8 0 Calma 4 Este 0 -- -- 74
2021-02-27 21:00:00 7 3 Este 9 Nordeste 0 -- -- 71
2021-02-27 20:00:00 8.7 4 Nordeste 14 Nordeste 0 -- -- 67
2021-02-27 19:00:00 10.6 6 Nordeste 19 Nordeste 0 -- -- 63
2021-02-27 18:00:00 12.6 10 Nordeste 22 Nordeste 0 -- -- 58
2021-02-27 17:00:00 14.1 8 Este 24 Nordeste 0 -- -- 56
2021-02-27 16:00:00 15.1 9 Nordeste 21 Nordeste 0 -- -- 54
2021-02-27 15:00:00 14.5 7 Oeste 15 Sudoeste 0 -- -- 54
2021-02-27 14:00:00 13.3 3 Sur 11 Oeste 0 -- -- 59
2021-02-27 13:00:00 11.5 3 Sudoeste 14 Oeste 0 -- -- 66
2021-02-27 12:00:00 9.4 4 Sudoeste 13 Sudeste 0 -- -- 74
2021-02-27 11:00:00 7.5 3 Sudeste 10 Este 0 -- -- 84
2021-02-27 10:00:00 6.6 2 Nordeste 7 Nordeste 0 -- -- 88
2021-02-27 09:00:00 4.9 0 Calma 7 Nordeste 0 -- -- 93
2021-02-27 08:00:00 4.1 0 Calma 5 Oeste 0 -- -- 93
2021-02-27 07:00:00 3.3 3 Oeste 6 Oeste 0 -- -- 93
2021-02-27 06:00:00 2.3 3 Oeste 8 Sudoeste 0 -- -- 96
2021-02-27 05:00:00 1 0 Calma 3 Sudeste 0 -- -- 97
2021-02-27 04:00:00 1.3 0 Calma 5 Nordeste 0 -- -- 95
2021-02-27 03:00:00 1.7 0 Calma 5 Nordeste 0 -- -- 92
2021-02-27 02:00:00 2.2 0 Calma 6 Nordeste 0 -- -- 91
2021-02-27 01:00:00 3.1 0 Calma 5 Sudeste 0 -- -- 90
2021-02-27 00:00:00 3.8 2 Este 5 Nordeste 0 -- -- 90
2021-02-26 23:00:00 4.8 2 Este 6 Norte 0 -- -- 89
2021-02-26 22:00:00 6.1 0 Calma 4 Este 0 -- -- 86
2021-02-26 21:00:00 7.6 0 Calma 5 Sudeste 0 -- -- 82
2021-02-26 20:00:00 9.4 0 Calma 10 Nordeste 0 -- -- 77
2021-02-26 19:00:00 11.1 6 Nordeste 20 Nordeste 0 -- -- 72
2021-02-26 18:00:00 12.7 10 Nordeste 21 Nordeste 0 -- -- 67
2021-02-26 17:00:00 14.1 9 Nordeste 24 Este 0 -- -- 61
2021-02-26 16:00:00 15 9 Nordeste 20 Nordeste 0 -- -- 56
2021-02-26 15:00:00 14.8 8 Nordeste 19 Nordeste 0 -- -- 56
2021-02-26 14:00:00 13.8 6 Nordeste 17 Norte 0 -- -- 60
2021-02-26 13:00:00 12.5 5 Nordeste 16 Nordeste 0 -- -- 64
2021-02-26 12:00:00 11.1 4 Nordeste 10 Norte 0 -- -- 72
2021-02-26 11:00:00 8.5 3 Sudoeste 8 Noroeste 0 -- -- 81
2021-02-26 10:00:00 7 2 Oeste 10 Sudoeste 0 -- -- 87
2021-02-26 09:00:00 5.5 3 Oeste 7 Sudoeste 0 -- -- 90
2021-02-26 08:00:00 5 3 Oeste 7 Sur 0 -- -- 88
2021-02-26 07:00:00 4.9 0 Calma 5 Este 0 -- -- 89
2021-02-26 06:00:00 4.2 0 Calma 6 Sudoeste 0 -- -- 90
2021-02-26 05:00:00 3.2 0 Calma 6 Este 0 -- -- 92
2021-02-26 04:00:00 3.4 0 Calma 5 Sudoeste 0 -- -- 92
2021-02-26 03:00:00 2.8 0 Calma 5 Nordeste 0 -- -- 92
2021-02-26 02:00:00 2.9 0 Calma 6 Este 0 -- -- 90
2021-02-26 01:00:00 3.3 3 Este 5 Nordeste 0 -- -- 88
2021-02-26 00:00:00 4 0 Calma 5 Nordeste 0 -- -- 87
2021-02-25 23:00:00 5.2 0 Calma 5 Nordeste 0 -- -- 84
2021-02-25 22:00:00 6.5 4 Nordeste 8 Nordeste 0 -- -- 80
2021-02-25 21:00:00 7.8 3 Nordeste 8 Este 0 -- -- 78
2021-02-25 20:00:00 9 3 Nordeste 14 Nordeste 0 -- -- 74
2021-02-25 19:00:00 10.3 5 Nordeste 18 Norte 0 -- -- 70
2021-02-25 18:00:00 11.6 9 Nordeste 22 Nordeste 0 -- -- 69
2021-02-25 17:00:00 12.3 12 Nordeste 25 Nordeste 0 -- -- 66
2021-02-25 16:00:00 13.5 13 Nordeste 29 Norte 0 -- -- 61
2021-02-25 15:00:00 14.5 12 Nordeste 24 Nordeste 0 -- -- 57
2021-02-25 14:00:00 15.2 10 Nordeste 25 Nordeste 0 -- -- 53
2021-02-25 13:00:00 14.2 5 Oeste 11 Oeste 0 -- -- 48
2021-02-25 12:00:00 12.6 4 Nordeste 15 Sur 0 -- -- 53
2021-02-25 11:00:00 10.4 3 Nordeste 12 Sur 0 -- -- 62
2021-02-25 10:00:00 8.5 3 Sudeste 10 Sudeste 0 -- -- 71
2021-02-25 09:00:00 4.9 0 Calma 7 Nordeste 0 -- -- 84
2021-02-25 08:00:00 4.3 2 Nordeste 13 Sudoeste 0 -- -- 84
2021-02-25 07:00:00 5.1 5 Sudoeste 14 Sudeste 0 -- -- 83
2021-02-25 06:00:00 3.4 0 Calma 10 Sudeste 0 -- -- 89
2021-02-25 05:00:00 2.7 0 Calma 6 Sudeste 0 -- -- 89
2021-02-25 04:00:00 4.9 2 Nordeste 9 Norte 0 -- -- 83
2021-02-25 03:00:00 5.6 2 Este 10 Oeste 0 -- -- 83
2021-02-25 02:00:00 6 0 Calma 11 Sudeste 0 -- -- 82
2021-02-25 01:00:00 7.4 3 Norte 10 Oeste 0 -- -- 79
2021-02-25 00:00:00 7.6 3 Oeste 9 Sur 0 -- -- 77
2021-02-24 23:00:00 8.1 2 Nordeste 10 Nordeste 0 -- -- 73
2021-02-24 22:00:00 10.4 3 Sudeste 19 Este 0 -- -- 67
2021-02-24 21:00:00 11.3 4 Nordeste 10 Este 0 -- -- 65
2021-02-24 20:00:00 12.9 2 Sudeste 18 Sur 0 -- -- 60
2021-02-24 19:00:00 14.6 6 Nordeste 23 Este 0 -- -- 53
2021-02-24 18:00:00 16.6 7 Sudeste 26 Sur 0 -- -- 41
2021-02-24 17:00:00 18.5 6 Norte 30 Sudeste 0 -- -- 33
2021-02-24 16:00:00 18.9 7 Sudeste 24 Sudeste 0 -- -- 32
2021-02-24 15:00:00 18.2 8 Sudeste 26 Sur 0 -- -- 37
2021-02-24 14:00:00 17.1 8 Sudeste 25 Sudeste 0 -- -- 45
2021-02-24 13:00:00 15.7 6 Este 22 Sudeste 0 -- -- 51
2021-02-24 12:00:00 13.4 5 Este 19 Sur 0 -- -- 60
2021-02-24 11:00:00 10.9 5 Sudeste 18 Sudeste 0 -- -- 69
2021-02-24 10:00:00 9.1 4 Nordeste 20 Sudeste 0 -- -- 75
2021-02-24 09:00:00 6.6 3 Norte 13 Sudoeste 0 -- -- 85
2021-02-24 08:00:00 4.3 0 Calma 6 Sudeste 0 -- -- 88
2021-02-24 07:00:00 6.3 3 Este 10 Norte 0 -- -- 83
2021-02-24 06:00:00 6.6 4 Nordeste 15 Sudeste 0 -- -- 82
2021-02-24 05:00:00 7 4 Nordeste 17 Nordeste 0 -- -- 82
2021-02-24 04:00:00 7.1 6 Este 21 Este 0 -- -- 82
2021-02-24 03:00:00 7.1 6 Sur 16 Sudeste 0 -- -- 82
2021-02-24 02:00:00 6.6 4 Nordeste 10 Nordeste 0 -- -- 84
2021-02-24 01:00:00 7.5 2 Norte 20 Sur 0 -- -- 76
2021-02-24 00:00:00 6.8 3 Sudoeste 7 Oeste 0 -- -- 83
2021-02-23 23:00:00 5.3 2 Este 8 Nordeste 0 -- -- 87
2021-02-23 22:00:00 6.5 3 Nordeste 7 Nordeste 0 -- -- 84
2021-02-23 21:00:00 8.1 2 Este 9 Norte 0 -- -- 80
2021-02-23 20:00:00 9.9 3 Nordeste 14 Nordeste 0 -- -- 74
2021-02-23 19:00:00 11.2 7 Nordeste 22 Este 0 -- -- 71
2021-02-23 18:00:00 13.2 11 Nordeste 27 Nordeste 0 -- -- 63
2021-02-23 17:00:00 15.7 3 Este 17 Sudeste 0 -- -- 37
2021-02-23 16:00:00 15.6 5 Sudeste 18 Sudeste 0 -- -- 39
2021-02-23 15:00:00 14.5 6 Este 18 Este 0 -- -- 42
2021-02-23 14:00:00 13.1 4 Este 15 Norte 0 -- -- 48
2021-02-23 13:00:00 11.1 4 Este 14 Sudeste 0 -- -- 58
2021-02-23 12:00:00 9.6 4 Este 14 Este 0 -- -- 64
2021-02-23 11:00:00 7.4 3 Este 13 Nordeste 0 -- -- 73
2021-02-23 10:00:00 5.4 4 Sudeste 13 Este 0 -- -- 80
2021-02-23 09:00:00 4.7 3 Sudeste 12 Sudeste 0 -- -- 82
2021-02-23 08:00:00 4.5 4 Oeste 11 Oeste 0 -- -- 83
2021-02-23 07:00:00 4.7 2 Sudeste 10 Sur 0 -- -- 83
2021-02-23 06:00:00 5.2 4 Sudeste 10 Sudeste 0 -- -- 83
2021-02-23 05:00:00 5.6 0 Calma 8 Sudeste 0 -- -- 85
2021-02-23 04:00:00 5.7 3 Este 6 Sudeste 0 -- -- 85
2021-02-23 03:00:00 5.8 0 Calma 4 Nordeste 0 -- -- 89
2021-02-23 02:00:00 5.8 0 Calma 5 Sudeste 0 -- -- 89
2021-02-23 01:00:00 5.8 0 Calma 4 Norte 0 -- -- 89
2021-02-23 00:00:00 5.8 0 Calma 5 Noroeste 0 -- -- 89
2021-02-22 23:00:00 5.8 0 Calma 4 Nordeste 0 -- -- 89
2021-02-22 22:00:00 5.8 3 Nordeste 8 Norte 0 -- -- 89
2021-02-22 21:00:00 5.7 0 Calma 4 Nordeste 0 -- -- 89
2021-02-22 20:00:00 5.8 0 Calma 5 Nordeste 0 -- -- 90
2021-02-22 19:00:00 5.8 2 Norte 12 Nordeste 0 -- -- 90
2021-02-22 18:00:00 6.1 4 Nordeste 12 Nordeste 0 -- -- 88
2021-02-22 17:00:00 6.4 5 Noroeste 12 Norte 0 -- -- 84
2021-02-22 16:00:00 6 5 Oeste 16 Sudoeste 0.2 -- -- 86
2021-02-22 15:00:00 6.2 6 Oeste 14 Oeste 0 -- -- 87
2021-02-22 14:00:00 5.6 5 Oeste 20 Sudoeste 0 -- -- 86
2021-02-22 13:00:00 5.6 4 Noroeste 15 Sudoeste 0 -- -- 83
2021-02-22 12:00:00 5.3 4 Noroeste 15 Oeste 0 -- -- 84
2021-02-22 11:00:00 4.7 7 Oeste 15 Oeste 0 -- -- 85
2021-02-22 10:00:00 4.7 7 Oeste 15 Sudoeste 0.2 -- -- 84
2021-02-22 09:00:00 4.8 4 Noroeste 18 Oeste 0 -- -- 82
2021-02-22 08:00:00 4.8 3 Noroeste 21 Sudoeste 0 -- -- 82
2021-02-22 07:00:00 5 6 Oeste 21 Sudoeste 0 -- -- 84
2021-02-22 06:00:00 4.8 14 Sudoeste 25 Oeste 0 -- -- 86
2021-02-22 05:00:00 5.2 12 Oeste 30 Oeste 0.6 -- -- 87
2021-02-22 04:00:00 6.3 11 Oeste 29 Oeste 0.4 -- -- 85
2021-02-22 03:00:00 8.5 3 Sudoeste 8 Sudoeste 0 -- -- 89
2021-02-22 02:00:00 9.2 4 Noroeste 17 Nordeste 0.2 -- -- 86
2021-02-22 01:00:00 9.5 7 Nordeste 17 Nordeste 0 -- -- 86
2021-02-22 00:00:00 9.9 0 Calma 21 Nordeste 0 -- -- 78
2021-02-21 23:00:00 10.5 7 Nordeste 32 Este 0 -- -- 75
2021-02-21 22:00:00 10.4 10 Este 28 Este 0 -- -- 74
2021-02-21 21:00:00 9.8 8 Este 32 Este 0 -- -- 80
2021-02-21 20:00:00 10.1 14 Nordeste 30 Este 0 -- -- 77
2021-02-21 19:00:00 10.9 12 Nordeste 36 Este 0 -- -- 72
2021-02-21 18:00:00 11.3 10 Nordeste 27 Este 0 -- -- 71
2021-02-21 17:00:00 12.2 9 Este 30 Este 0 -- -- 64
2021-02-21 16:00:00 12.5 13 Este 35 Este 0 -- -- 62
2021-02-21 15:00:00 12.9 15 Nordeste 38 Sudeste 0 -- -- 59
2021-02-21 14:00:00 14.7 8 Este 30 Sudeste 0 -- -- 48
2021-02-21 13:00:00 14.3 5 Sudeste 21 Este 0 -- -- 53
2021-02-21 12:00:00 12.4 5 Este 18 Este 0 -- -- 57
2021-02-21 11:00:00 11.2 4 Este 13 Nordeste 0 -- -- 56
2021-02-21 10:00:00 8.7 6 Nordeste 12 Nordeste 0 -- -- 66
2021-02-21 09:00:00 8.1 9 Nordeste 15 Nordeste 0 -- -- 66
2021-02-21 08:00:00 8.4 4 Nordeste 13 Nordeste 0 -- -- 65
2021-02-21 07:00:00 8.8 4 Noroeste 17 Sudeste 0 -- -- 63
2021-02-21 06:00:00 8.9 6 Este 26 Sur 0 -- -- 64
2021-02-21 05:00:00 9.3 6 Sudeste 21 Sur 0 -- -- 62
2021-02-21 04:00:00 9.3 7 Sudeste 24 Sudoeste 0 -- -- 60
2021-02-21 03:00:00 9.2 6 Este 19 Sudeste 0 -- -- 63
2021-02-21 02:00:00 9.5 6 Sudeste 21 Sudeste 0 -- -- 64
2021-02-21 01:00:00 10.1 7 Sudeste 25 Sur 0 -- -- 63
2021-02-21 00:00:00 10.7 7 Sur 19 Sudeste 0 -- -- 60
2021-02-20 23:00:00 11.4 4 Este 17 Sudeste 0 -- -- 54
2021-02-20 22:00:00 12 4 Este 20 Este 0 -- -- 50
2021-02-20 21:00:00 13.1 5 Nordeste 14 Norte 0 -- -- 43
2021-02-20 20:00:00 14.4 5 Sudeste 18 Sudeste 0 -- -- 36
2021-02-20 19:00:00 15.4 5 Sudeste 26 Sudeste 0 -- -- 33
2021-02-20 18:00:00 16.9 6 Norte 26 Este 0 -- -- 31
2021-02-20 17:00:00 18.7 10 Sudeste 38 Sudeste 0 -- -- 26
2021-02-20 16:00:00 20.7 9 Sudeste 30 Sudeste 0 -- -- 21
2021-02-20 15:00:00 20.8 9 Sudeste 32 Sur 0 -- -- 22
2021-02-20 14:00:00 20 9 Sudeste 31 Sudeste 0 -- -- 23
2021-02-20 13:00:00 18.6 8 Sudeste 29 Sudeste 0 -- -- 26
2021-02-20 12:00:00 17 7 Sudeste 31 Este 0 -- -- 30
2021-02-20 11:00:00 15.1 12 Sudeste 31 Sudeste 0 -- -- 32
2021-02-20 10:00:00 11.8 6 Este 30 Sudeste 0 -- -- 43
2021-02-20 09:00:00 8.6 4 Oeste 13 Sudoeste 0 -- -- 54
2021-02-20 08:00:00 5.5 5 Sudoeste 10 Sudoeste 0 -- -- 69
2021-02-20 07:00:00 2.4 4 Sudoeste 6 Oeste 0 -- -- 82
2021-02-20 06:00:00 2.3 3 Este 6 Sudeste 0 -- -- 81
2021-02-20 05:00:00 3.4 3 Este 6 Sudoeste 0 -- -- 77
2021-02-20 04:00:00 7.3 3 Sudoeste 17 Oeste 0 -- -- 65
2021-02-20 03:00:00 8.4 6 Oeste 19 Sudoeste 0 -- -- 60
2021-02-20 02:00:00 5 3 Nordeste 8 Norte 0 -- -- 68
2021-02-20 01:00:00 4.3 2 Nordeste 8 Nordeste 0 -- -- 67
2021-02-20 00:00:00 4.4 3 Este 8 Nordeste 0 -- -- 66
2021-02-19 23:00:00 5.2 3 Este 9 Nordeste 0 -- -- 62
2021-02-19 22:00:00 6.7 2 Este 7 Oeste 0 -- -- 56
2021-02-19 21:00:00 7.7 3 Este 6 Este 0 -- -- 53
2021-02-19 20:00:00 11.4 3 Este 12 Oeste 0 -- -- 41
2021-02-19 19:00:00 15.1 5 Oeste 27 Sudoeste 0 -- -- 29
2021-02-19 18:00:00 17.1 15 Oeste 25 Sudoeste 0 -- -- 24
2021-02-19 17:00:00 18.3 12 Oeste 37 Sudoeste 0 -- -- 22
2021-02-19 16:00:00 18.4 16 Oeste 36 Sudoeste 0 -- -- 24
2021-02-19 15:00:00 18.2 18 Oeste 40 Sudoeste 0 -- -- 25
2021-02-19 14:00:00 17.6 20 Oeste 37 Sudoeste 0 -- -- 24
2021-02-19 13:00:00 17 19 Oeste 39 Oeste 0 -- -- 25
2021-02-19 12:00:00 15.8 5 Sudeste 17 Sudeste 0 -- -- 40
2021-02-19 11:00:00 12.8 3 Este 12 Nordeste 0 -- -- 48
2021-02-19 10:00:00 7.1 0 Calma 6 Este 0 -- -- 68
2021-02-19 09:00:00 1.1 3 Este 6 Este 0 -- -- 86
2021-02-19 08:00:00 0.7 3 Este 8 Nordeste 0 -- -- 85
2021-02-19 07:00:00 0.9 2 Este 8 Norte 0 -- -- 85
2021-02-19 06:00:00 1.3 3 Este 7 Nordeste 0 -- -- 83
2021-02-19 05:00:00 2.1 0 Calma 8 Este 0 -- -- 80
2021-02-19 04:00:00 2.9 4 Este 13 Nordeste 0 -- -- 77
2021-02-19 03:00:00 3.4 3 Este 8 Nordeste 0 -- -- 74
2021-02-19 02:00:00 3.9 3 Nordeste 9 Nordeste 0 -- -- 72
2021-02-19 01:00:00 5.1 2 Nordeste 8 Nordeste 0 -- -- 67
2021-02-19 00:00:00 7.6 0 Calma 14 Sudoeste 0 -- -- 57
2021-02-18 23:00:00 7.6 0 Calma 10 Sudeste 0 -- -- 57
2021-02-18 22:00:00 8.2 4 Nordeste 9 Nordeste 0 -- -- 55
2021-02-18 21:00:00 9.4 4 Este 13 Nordeste 0 -- -- 49
2021-02-18 20:00:00 11.5 4 Nordeste 20 Sudoeste 0 -- -- 43
2021-02-18 19:00:00 14.2 12 Sudoeste 27 Sudoeste 0 -- -- 34
2021-02-18 18:00:00 15.8 17 Sudoeste 34 Sudoeste 0 -- -- 33
2021-02-18 17:00:00 17.1 20 Sudoeste 44 Sudoeste 0 -- -- 29
2021-02-18 16:00:00 18 20 Oeste 42 Sudoeste 0 -- -- 25
2021-02-18 15:00:00 18.2 17 Oeste 45 Sudoeste 0 -- -- 24
2021-02-18 14:00:00 17.5 10 Oeste 33 Sudoeste 0 -- -- 25
2021-02-18 13:00:00 16 15 Oeste 32 Oeste 0 -- -- 34
2021-02-18 12:00:00 14.2 3 Sudoeste 9 Oeste 0 -- -- 38
2021-02-18 11:00:00 11.1 4 Sudoeste 7 Sudoeste 0 -- -- 51
2021-02-18 10:00:00 6.7 0 Calma 6 Nordeste 0 -- -- 66
2021-02-18 09:00:00 2.2 3 Este 8 Nordeste 0 -- -- 79
2021-02-18 08:00:00 1.5 0 Calma 6 Sudeste 0 -- -- 78
2021-02-18 07:00:00 3.7 0 Calma 10 Sudoeste 0 -- -- 70
2021-02-18 06:00:00 5.2 3 Sur 10 Sudoeste 0 -- -- 64
2021-02-18 05:00:00 5.9 2 Oeste 11 Oeste 0 -- -- 62
2021-02-18 04:00:00 6.4 4 Oeste 12 Sudoeste 0 -- -- 60
2021-02-18 03:00:00 7.3 3 Oeste 12 Oeste 0 -- -- 57
2021-02-18 02:00:00 8.2 5 Oeste 14 Este 0 -- -- 53
2021-02-18 01:00:00 8.8 5 Sur 14 Sur 0 -- -- 52
2021-02-18 00:00:00 9.5 3 Noroeste 14 Sudeste 0 -- -- 50
2021-02-17 23:00:00 10.5 6 Sur 18 Sudeste 0 -- -- 49
2021-02-17 22:00:00 8.8 4 Este 12 Sudeste 0 -- -- 55
2021-02-17 21:00:00 7.8 2 Este 6 Sudeste 0 -- -- 63
2021-02-17 20:00:00 10.5 4 Nordeste 8 Nordeste 0 -- -- 53
2021-02-17 19:00:00 15.1 4 Sudoeste 21 Sudoeste 0 -- -- 36
2021-02-17 18:00:00 17.3 13 Oeste 31 Oeste 0 -- -- 31
2021-02-17 17:00:00 17.9 16 Sudoeste 40 Sudoeste 0 -- -- 30
2021-02-17 16:00:00 18.9 18 Oeste 42 Sudoeste 0 -- -- 28
2021-02-17 15:00:00 18.6 16 Oeste 30 Oeste 0 -- -- 31
2021-02-17 14:00:00 17.6 13 Oeste 31 Oeste 0 -- -- 37
2021-02-17 13:00:00 15.2 11 Oeste 21 Oeste 0 -- -- 49
2021-02-17 12:00:00 10.1 3 Oeste 7 Sudoeste 0 -- -- 71
2021-02-17 11:00:00 6.5 0 Calma 5 Nordeste 0 -- -- 82
2021-02-17 10:00:00 4 0 Calma 5 Este 0 -- -- 88
2021-02-17 09:00:00 2.4 0 Calma 6 Este 0 -- -- 90
2021-02-17 08:00:00 2.4 0 Calma 5 Este 0 -- -- 88
2021-02-17 07:00:00 2.9 0 Calma 6 Sudeste 0 -- -- 88
2021-02-17 06:00:00 3 2 Este 7 Nordeste 0 -- -- 88
2021-02-17 05:00:00 3.2 3 Nordeste 6 Nordeste 0 -- -- 86
2021-02-17 04:00:00 3.7 2 Este 5 Nordeste 0 -- -- 84
2021-02-17 03:00:00 4.8 3 Nordeste 8 Este 0 -- -- 81
2021-02-17 02:00:00 5.6 3 Nordeste 6 Este 0 -- -- 79
2021-02-17 01:00:00 6.4 3 Este 10 Nordeste 0 -- -- 74
2021-02-17 00:00:00 8.8 5 Nordeste 16 Norte 0 -- -- 65
2021-02-16 23:00:00 10.3 5 Noroeste 13 Noroeste 0 -- -- 60
2021-02-16 22:00:00 9.9 4 Nordeste 9 Sur 0 -- -- 59
2021-02-16 21:00:00 12.8 5 Oeste 22 Sudoeste 0 -- -- 48
2021-02-16 20:00:00 14.4 11 Oeste 21 Noroeste 0 -- -- 42
2021-02-16 19:00:00 15.5 8 Oeste 24 Sudoeste 0 -- -- 37
2021-02-16 18:00:00 17 12 Oeste 29 Sudoeste 0 -- -- 32
2021-02-16 17:00:00 18.4 15 Oeste 36 Sudoeste 0 -- -- 29
2021-02-16 16:00:00 19.8 24 Sudoeste 43 Sudoeste 0 -- -- 26
2021-02-16 15:00:00 19.7 16 Oeste 33 Oeste 0 -- -- 30
2021-02-16 14:00:00 18.1 11 Oeste 27 Sudoeste 0 -- -- 38
2021-02-16 13:00:00 15.5 5 Sudoeste 13 Sudoeste 0 -- -- 47
2021-02-16 12:00:00 12.5 4 Este 11 Este 0 -- -- 56
2021-02-16 11:00:00 10.3 4 Sudeste 12 Sudeste 0 -- -- 63
2021-02-16 10:00:00 5.7 2 Oeste 4 Sudeste 0 -- -- 80
2021-02-16 09:00:00 3.2 0 Calma 7 Sudoeste 0 -- -- 86
2021-02-16 08:00:00 2.7 2 Norte 6 Norte 0 -- -- 88
2021-02-16 07:00:00 3.9 3 Norte 13 Sudeste 0 -- -- 85
2021-02-16 06:00:00 4.3 2 Norte 14 Sudoeste 0 -- -- 83
2021-02-16 05:00:00 5.1 3 Norte 14 Sudoeste 0 -- -- 81
2021-02-16 04:00:00 5.1 0 Calma 12 Sudeste 0 -- -- 83
2021-02-16 03:00:00 5.4 4 Nordeste 13 Sudeste 0 -- -- 82
2021-02-16 02:00:00 6.2 2 Nordeste 14 Sur 0 -- -- 79
2021-02-16 01:00:00 6.8 3 Sudeste 19 Sudeste 0 -- -- 77
2021-02-16 00:00:00 7.4 3 Este 12 Sudeste 0 -- -- 76
2021-02-15 23:00:00 8.1 4 Sur 18 Este 0 -- -- 74
2021-02-15 22:00:00 9 5 Sudeste 16 Sudeste 0 -- -- 71
2021-02-15 21:00:00 9.8 4 Norte 11 Sudeste 0 -- -- 68
2021-02-15 20:00:00 8.9 5 Nordeste 14 Nordeste 0 -- -- 80
2021-02-15 19:00:00 10.6 3 Este 13 Este 0 -- -- 73
2021-02-15 18:00:00 13.8 8 Nordeste 15 Nordeste 0 -- -- 61
2021-02-15 17:00:00 16.9 2 Este 17 Sudoeste 0 -- -- 42
2021-02-15 16:00:00 16.6 4 Sur 16 Sudeste 0 -- -- 41
2021-02-15 15:00:00 15.9 6 Sudeste 17 Sudeste 0 -- -- 45
2021-02-15 14:00:00 14.9 5 Sur 13 Sur 0 -- -- 51
2021-02-15 13:00:00 13.2 5 Sur 20 Sudeste 0 -- -- 55
2021-02-15 12:00:00 11.8 6 Sudeste 21 Sudoeste 0 -- -- 59
2021-02-15 11:00:00 10 5 Noroeste 21 Sudeste 0 -- -- 67
2021-02-15 10:00:00 7.6 3 Sur 9 Sudeste 0 -- -- 76
2021-02-15 09:00:00 4.1 0 Calma 7 Oeste 0 -- -- 88
2021-02-15 08:00:00 4.2 0 Calma 7 Noroeste 0 -- -- 85
2021-02-15 07:00:00 5 0 Calma 8 Oeste 0 -- -- 86
2021-02-15 06:00:00 5.4 2 Noroeste 7 Oeste 0 -- -- 84
2021-02-15 05:00:00 6.2 3 Oeste 11 Sudoeste 0 -- -- 82
2021-02-15 04:00:00 6.4 0 Calma 8 Nordeste 0 -- -- 83
2021-02-15 03:00:00 6.6 0 Calma 12 Sudeste 0 -- -- 83
2021-02-15 02:00:00 7.1 3 Sudeste 10 Sur 0 -- -- 81
2021-02-15 01:00:00 7.3 3 Noroeste 13 Sur 0 -- -- 79
2021-02-15 00:00:00 7.6 2 Este 10 Sudoeste 0 -- -- 80
2021-02-14 23:00:00 8.2 2 Sudeste 17 Sudoeste 0 -- -- 79
2021-02-14 22:00:00 8.5 0 Calma 12 Este 0 -- -- 77
2021-02-14 21:00:00 8.5 4 Este 10 Nordeste 0 -- -- 78
2021-02-14 20:00:00 8.2 4 Este 15 Nordeste 0 -- -- 83
2021-02-14 19:00:00 9.6 6 Nordeste 20 Norte 0 -- -- 79
2021-02-14 18:00:00 11.8 9 Nordeste 25 Nordeste 0 -- -- 71
2021-02-14 17:00:00 14.2 8 Este 23 Este 0 -- -- 59
2021-02-14 16:00:00 16.8 4 Nordeste 12 Nordeste 0 -- -- 33
2021-02-14 15:00:00 15.8 4 Este 13 Este 0 -- -- 39
2021-02-14 14:00:00 14.6 3 Oeste 14 Sudoeste 0 -- -- 49
2021-02-14 13:00:00 12.9 3 Este 11 Sudoeste 0 -- -- 59
2021-02-14 12:00:00 10.9 4 Sur 11 Sudeste 0 -- -- 68
2021-02-14 11:00:00 7.2 4 Oeste 10 Oeste 0 -- -- 79
2021-02-14 10:00:00 3.4 0 Calma 3 Sudeste 0 -- -- 90
2021-02-14 09:00:00 -1.1 0 Calma 5 Este 0 -- -- 94
2021-02-14 08:00:00 -1.2 0 Calma 4 Sudeste 0 -- -- 93
2021-02-14 07:00:00 -0.9 0 Calma 6 Nordeste 0 -- -- 94
2021-02-14 06:00:00 -0.6 0 Calma 6 Norte 0 -- -- 93
2021-02-14 05:00:00 -0.3 2 Este 4 Nordeste 0 -- -- 93
2021-02-14 04:00:00 0.1 0 Calma 6 Este 0 -- -- 93
2021-02-14 03:00:00 0.7 0 Calma 6 Sudeste 0 -- -- 92
2021-02-14 02:00:00 1.4 0 Calma 5 Norte 0 -- -- 91
2021-02-14 01:00:00 1.9 2 Este 6 Sudeste 0 -- -- 91
2021-02-14 00:00:00 3 2 Nordeste 4 Este 0 -- -- 89
2021-02-13 23:00:00 4.5 2 Este 6 Nordeste 0 -- -- 86
2021-02-13 22:00:00 5.8 3 Nordeste 9 Nordeste 0 -- -- 84
2021-02-13 21:00:00 6.6 2 Este 9 Nordeste 0 -- -- 80
2021-02-13 20:00:00 7.5 4 Nordeste 7 Nordeste 0 -- -- 74
2021-02-13 19:00:00 10.2 2 Nordeste 11 Noroeste 0 -- -- 62
2021-02-13 18:00:00 10.9 5 Oeste 18 Sudoeste 0 -- -- 56
2021-02-13 17:00:00 11.6 8 Oeste 27 Oeste 0 -- -- 50
2021-02-13 16:00:00 11.1 10 Oeste 34 Sudoeste 0 -- -- 58
2021-02-13 15:00:00 10.5 15 Oeste 27 Sudoeste 0 -- -- 62
2021-02-13 14:00:00 10.8 8 Oeste 26 Sudoeste 0 -- -- 65
2021-02-13 13:00:00 10.2 13 Oeste 26 Oeste 0 -- -- 68
2021-02-13 08:00:00 1.4 0 Calma 6 Nordeste 0 -- -- 95
2021-02-13 07:00:00 1.5 0 Calma 6 Nordeste 0 -- -- 94
2021-02-13 06:00:00 1.8 0 Calma 7 Este 0 -- -- 95
2021-02-13 05:00:00 1.9 0 Calma 8 Este 0 -- -- 94
2021-02-13 04:00:00 2.4 0 Calma 6 Nordeste 0 -- -- 93
2021-02-13 03:00:00 3.3 0 Calma 12 Sudoeste 0 -- -- 92
2021-02-13 02:00:00 3 2 Sudoeste 6 Sudeste 0 -- -- 93
2021-02-13 01:00:00 3.8 4 Nordeste 10 Este 0 -- -- 90
2021-02-13 00:00:00 5.4 3 Nordeste 10 Oeste 0 -- -- 86
2021-02-12 23:00:00 7.4 3 Sudoeste 15 Sudoeste 0 -- -- 80
2021-02-12 22:00:00 6.9 0 Calma 6 Nordeste 0 -- -- 85
2021-02-12 21:00:00 9.5 4 Oeste 15 Sudoeste 0 -- -- 76
2021-02-12 20:00:00 10.5 5 Oeste 19 Oeste 0 -- -- 72
2021-02-12 19:00:00 10.8 6 Sudoeste 27 Sudoeste 0 -- -- 72
2021-02-12 18:00:00 10.8 9 Oeste 31 Sudoeste 0 -- -- 72
2021-02-12 17:00:00 10.9 10 Oeste 30 Oeste 0 -- -- 70
2021-02-12 16:00:00 10.9 14 Oeste 38 Oeste 0.2 -- -- 69
2021-02-12 15:00:00 11.1 20 Oeste 45 Sudoeste 0 -- -- 68
2021-02-12 14:00:00 10.9 17 Oeste 46 Oeste 0 -- -- 70
2021-02-12 13:00:00 11.3 22 Sudoeste 47 Sudoeste 0 -- -- 69
2021-02-12 12:00:00 9.9 12 Sudoeste 26 Sudoeste 0 -- -- 80
2021-02-12 11:00:00 9.2 4 Nordeste 14 Sudoeste 0.2 -- -- 86
2021-02-12 10:00:00 8.9 5 Sudoeste 15 Oeste 0.6 -- -- 86
2021-02-12 09:00:00 9.6 9 Oeste 25 Oeste 0.8 -- -- 81
2021-02-12 08:00:00 9.8 4 Sudoeste 11 Sudoeste 0 -- -- 83
2021-02-12 07:00:00 9 4 Oeste 10 Oeste 0 -- -- 85
2021-02-12 06:00:00 9.2 3 Este 9 Este 0 -- -- 88
2021-02-12 05:00:00 9.2 0 Calma 9 Oeste 0 -- -- 85
2021-02-12 04:00:00 9.3 3 Oeste 13 Oeste 0 -- -- 85
2021-02-12 03:00:00 9.3 7 Sudoeste 18 Sudoeste 0 -- -- 86
2021-02-12 02:00:00 9.3 2 Este 13 Oeste 0 -- -- 84
2021-02-12 01:00:00 10.9 11 Oeste 19 Sudoeste 0 -- -- 81
2021-02-12 00:00:00 8.3 4 Este 8 Este 0 -- -- 87
2021-02-11 23:00:00 9.9 3 Nordeste 7 Norte 0 -- -- 83
2021-02-11 22:00:00 11 4 Sur 23 Noroeste 0 -- -- 79
2021-02-11 21:00:00 11.1 4 Sudeste 28 Oeste 0 -- -- 77
2021-02-11 20:00:00 10.9 12 Sudoeste 27 Sudoeste 0 -- -- 76
2021-02-11 19:00:00 11.2 3 Nordeste 17 Sudoeste 0 -- -- 73
2021-02-11 18:00:00 13.2 9 Sudoeste 33 Sudoeste 0 -- -- 66
2021-02-11 17:00:00 14.2 12 Sudoeste 24 Sudoeste 0 -- -- 62
2021-02-11 16:00:00 14 6 Oeste 22 Oeste 0 -- -- 62
2021-02-11 15:00:00 14.1 10 Oeste 32 Sudoeste 0 -- -- 62
2021-02-11 14:00:00 13.8 12 Oeste 37 Oeste 0 -- -- 62
2021-02-11 13:00:00 13.1 15 Sudoeste 27 Sudoeste 0 -- -- 64
2021-02-11 12:00:00 12 8 Sudoeste 19 Sudoeste 0 -- -- 69
2021-02-11 11:00:00 9.7 5 Sudoeste 9 Sudoeste 0 -- -- 73
2021-02-11 10:00:00 6.8 5 Oeste 9 Oeste 0 -- -- 80
2021-02-11 09:00:00 4.5 0 Calma 8 Norte 0 -- -- 86
2021-02-11 08:00:00 4.3 4 Nordeste 10 Nordeste 0 -- -- 85
2021-02-11 07:00:00 4.6 3 Este 8 Nordeste 0 -- -- 85
2021-02-11 06:00:00 4.5 2 Este 14 Sudoeste 0 -- -- 85
2021-02-11 05:00:00 3.3 0 Calma 8 Nordeste 0 -- -- 90
2021-02-11 04:00:00 2.4 3 Nordeste 8 Nordeste 0 -- -- 92
2021-02-11 03:00:00 1 2 Este 9 Noroeste 0 -- -- 91
2021-02-11 02:00:00 1 4 Este 9 Nordeste 0 -- -- 90
2021-02-11 01:00:00 1.5 2 Este 7 Sudeste 0 -- -- 89
2021-02-11 00:00:00 1.8 4 Nordeste 7 Este 0 -- -- 88
2021-02-10 23:00:00 2.2 4 Nordeste 8 Sudeste 0 -- -- 85
2021-02-10 22:00:00 3.4 2 Este 11 Norte 0 -- -- 82
2021-02-10 21:00:00 4.1 3 Nordeste 10 Sudeste 0 -- -- 80
2021-02-10 20:00:00 5.6 3 Este 7 Oeste 0 -- -- 73
2021-02-10 19:00:00 8 3 Noroeste 17 Oeste 0 -- -- 64
2021-02-10 18:00:00 9.8 12 Oeste 35 Sudoeste 0 -- -- 54
2021-02-10 17:00:00 10.6 17 Oeste 42 Sudoeste 0 -- -- 52
2021-02-10 16:00:00 11 16 Oeste 39 Sudoeste 0 -- -- 50
2021-02-10 15:00:00 10.5 16 Oeste 47 Noroeste 0 -- -- 53
2021-02-10 14:00:00 9.9 11 Sudoeste 39 Oeste 0 -- -- 56
2021-02-10 13:00:00 8.4 18 Oeste 44 Sudoeste 0 -- -- 59
2021-02-10 12:00:00 7.6 13 Oeste 32 Sudoeste 0 -- -- 67
2021-02-10 11:00:00 6.3 13 Oeste 33 Sudoeste 0 -- -- 75
2021-02-10 10:00:00 5.9 7 Oeste 23 Oeste 0 -- -- 79
2021-02-10 09:00:00 5.5 13 Oeste 36 Sudoeste 0 -- -- 78
2021-02-10 08:00:00 3.9 10 Sudoeste 26 Noroeste 0 -- -- 86
2021-02-10 07:00:00 3.1 2 Este 13 Norte 1.4 -- -- 91
2021-02-10 06:00:00 4.1 4 Noroeste 9 Noroeste 3.2 -- -- 91
2021-02-10 05:00:00 4.9 6 Sudoeste 37 Sudoeste 2 -- -- 89
2021-02-10 04:00:00 6.4 28 Sudoeste 54 Sudoeste 0.2 -- -- 81
2021-02-10 03:00:00 6.7 12 Oeste 30 Sudoeste 0.2 -- -- 81
2021-02-10 02:00:00 3.5 4 Este 12 Nordeste 0 -- -- 95
2021-02-10 01:00:00 3.4 3 Nordeste 8 Norte 0 -- -- 94
2021-02-10 00:00:00 4.1 0 Calma 13 Oeste 0 -- -- 91
2021-02-09 23:00:00 5.2 3 Norte 25 Sudoeste 2.2 -- -- 90
2021-02-09 22:00:00 5.5 0 Calma 42 Sudoeste 0.8 -- -- 87
2021-02-09 21:00:00 6.6 13 Oeste 27 Sudoeste 0 -- -- 78
2021-02-09 20:00:00 6.9 17 Sudoeste 38 Oeste 0 -- -- 75
2021-02-09 19:00:00 6.6 13 Oeste 31 Oeste 0 -- -- 78
2021-02-09 18:00:00 6.8 0 Calma 37 Oeste 0.4 -- -- 88
2021-02-09 17:00:00 8.4 20 Sudoeste 67 Sudoeste 1.4 -- -- 79
2021-02-09 16:00:00 10.4 34 Oeste 78 Oeste 0 -- -- 69
2021-02-09 15:00:00 11.1 23 Oeste 47 Sudoeste 0 -- -- 61
2021-02-09 14:00:00 11.9 25 Oeste 61 Oeste 0 -- -- 57
2021-02-09 13:00:00 10.8 23 Oeste 48 Sudoeste 0 -- -- 62
2021-02-09 12:00:00 10.2 20 Oeste 42 Sudoeste 0 -- -- 63
2021-02-09 11:00:00 8.8 12 Oeste 39 Sudoeste 0 -- -- 69
2021-02-09 10:00:00 7.3 14 Oeste 40 Oeste 0 -- -- 72
2021-02-09 09:00:00 6.3 6 Sur 33 Oeste 0 -- -- 74
2021-02-09 08:00:00 5.6 9 Oeste 30 Oeste 0 -- -- 77
2021-02-09 07:00:00 5.8 15 Oeste 37 Sudoeste 0 -- -- 76
2021-02-09 06:00:00 6.4 9 Oeste 35 Sudoeste 0 -- -- 72
2021-02-09 05:00:00 7 16 Sudoeste 37 Sudoeste 0 -- -- 74
2021-02-09 04:00:00 7.1 15 Oeste 41 Sudoeste 0 -- -- 73
2021-02-09 03:00:00 7.4 17 Oeste 39 Sudoeste 0 -- -- 73
2021-02-09 02:00:00 7.3 8 Sudoeste 22 Sudoeste 0 -- -- 76
2021-02-09 01:00:00 7.3 12 Oeste 25 Sudoeste 0 -- -- 73
2021-02-09 00:00:00 6.4 2 Nordeste 14 Sudoeste 0 -- -- 83
2021-02-08 23:00:00 6.3 6 Sudoeste 27 Sudoeste 0.2 -- -- 82
2021-02-08 22:00:00 6.9 12 Sudoeste 30 Sudoeste 0 -- -- 75
2021-02-08 21:00:00 7.3 12 Sudoeste 28 Sudoeste 0 -- -- 70
2021-02-08 20:00:00 7.5 13 Sudoeste 34 Sudoeste 0 -- -- 68
2021-02-08 19:00:00 8.3 10 Oeste 26 Sudoeste 0 -- -- 65
2021-02-08 18:00:00 8.2 9 Sudoeste 43 Sudoeste 0 -- -- 68
2021-02-08 17:00:00 8.8 8 Oeste 28 Sudoeste 0 -- -- 69
2021-02-08 16:00:00 7.9 11 Oeste 40 Oeste 0.2 -- -- 77
2021-02-08 15:00:00 9.8 5 Sudoeste 48 Sudoeste 0.2 -- -- 68
2021-02-08 14:00:00 9.5 18 Oeste 36 Sudoeste 0 -- -- 63
2021-02-08 13:00:00 9.7 22 Oeste 46 Sudoeste 0 -- -- 57
2021-02-08 12:00:00 8.9 20 Sudoeste 41 Sudoeste 0 -- -- 64
2021-02-08 11:00:00 7.5 20 Sudoeste 53 Sudoeste 0 -- -- 72
2021-02-08 10:00:00 6.4 21 Sudoeste 40 Oeste 0 -- -- 75
2021-02-08 09:00:00 5.6 19 Oeste 39 Oeste 0 -- -- 79
2021-02-08 08:00:00 5.9 8 Oeste 21 Oeste 0 -- -- 81
2021-02-08 07:00:00 6.1 14 Oeste 42 Oeste 0.2 -- -- 79
2021-02-08 06:00:00 6.6 10 Oeste 36 Sudoeste 0 -- -- 75
2021-02-08 05:00:00 6.8 11 Sudoeste 40 Oeste 0 -- -- 75
2021-02-08 04:00:00 6.6 18 Oeste 41 Oeste 0 -- -- 77
2021-02-08 03:00:00 6 14 Oeste 37 Oeste 0 -- -- 79
2021-02-08 02:00:00 6.5 5 Oeste 28 Sudoeste 0 -- -- 78
2021-02-08 01:00:00 7 8 Oeste 31 Oeste 0 -- -- 76
2021-02-08 00:00:00 6.8 16 Sudoeste 32 Sudoeste 0 -- -- 76
2021-02-07 23:00:00 6.3 5 Sudoeste 22 Oeste 0 -- -- 77
2021-02-07 22:00:00 6.8 8 Oeste 17 Sur 0 -- -- 73
2021-02-07 21:00:00 7.2 10 Sudoeste 27 Sudoeste 0 -- -- 67
2021-02-07 20:00:00 7.3 8 Oeste 18 Oeste 0 -- -- 62
2021-02-07 19:00:00 7.5 8 Oeste 20 Oeste 0 -- -- 61
2021-02-07 18:00:00 8.2 6 Oeste 20 Sudoeste 0 -- -- 56
2021-02-07 17:00:00 8.6 8 Sudoeste 25 Sudoeste 0 -- -- 54
2021-02-07 16:00:00 8.9 14 Sudoeste 36 Sudoeste 0 -- -- 47
2021-02-07 15:00:00 8.8 14 Sudoeste 29 Oeste 0 -- -- 48
2021-02-07 14:00:00 7.4 15 Sudoeste 35 Sudoeste 0 -- -- 50
2021-02-07 13:00:00 6.6 14 Oeste 29 Oeste 0 -- -- 56
2021-02-07 12:00:00 5.6 6 Oeste 23 Sudoeste 0 -- -- 62
2021-02-07 11:00:00 5.3 9 Oeste 26 Sudoeste 0 -- -- 67
2021-02-07 10:00:00 4.6 7 Oeste 16 Oeste 0 -- -- 73
2021-02-07 09:00:00 3.1 0 Calma 13 Oeste 0 -- -- 76
2021-02-07 08:00:00 3.3 6 Oeste 14 Sudoeste 0 -- -- 77
2021-02-07 07:00:00 3.1 3 Nordeste 5 Nordeste 0 -- -- 89
2021-02-07 06:00:00 3.4 0 Calma 8 Nordeste 0 -- -- 86
2021-02-07 05:00:00 3.9 0 Calma 5 Sur 0 -- -- 86
2021-02-07 04:00:00 3.9 2 Norte 5 Noroeste 0 -- -- 87
2021-02-07 03:00:00 4.1 0 Calma 5 Sur 0 -- -- 86
2021-02-07 02:00:00 4.2 0 Calma 12 Norte 0 -- -- 85
2021-02-07 01:00:00 4.6 3 Norte 12 Nordeste 0 -- -- 83
2021-02-07 00:00:00 4.7 3 Norte 16 Nordeste 0 -- -- 82
2021-02-06 23:00:00 5 0 Calma 6 Norte 0.2 -- -- 90
2021-02-06 22:00:00 5.3 3 Nordeste 8 Este 0 -- -- 89
2021-02-06 21:00:00 5.6 3 Nordeste 5 Nordeste 0 -- -- 91
2021-02-06 20:00:00 5.9 2 Norte 17 Nordeste 0.6 -- -- 88
2021-02-06 19:00:00 5.7 7 Nordeste 22 Nordeste 3.8 -- -- 90
2021-02-06 18:00:00 6.1 4 Nordeste 21 Nordeste 4.4 -- -- 88
2021-02-06 17:00:00 11.4 3 Norte 22 Oeste 0 -- -- 69
2021-02-06 16:00:00 12 10 Oeste 22 Sudoeste 0 -- -- 56
2021-02-06 15:00:00 11.6 6 Oeste 17 Sudoeste 0 -- -- 59
2021-02-06 14:00:00 11.3 5 Sudoeste 24 Oeste 0 -- -- 65
2021-02-06 13:00:00 10.9 5 Oeste 17 Oeste 0 -- -- 64
2021-02-06 12:00:00 10.2 6 Sur 15 Sur 0 -- -- 65
2021-02-06 11:00:00 10.2 5 Sur 13 Sur 0 -- -- 66
2021-02-06 10:00:00 9.7 4 Sudeste 23 Sudeste 0 -- -- 70
2021-02-06 09:00:00 7.8 4 Nordeste 14 Oeste 0 -- -- 76
2021-02-06 08:00:00 7.9 3 Sudeste 11 Sur 0 -- -- 78
2021-02-06 07:00:00 7.9 4 Sudoeste 11 Oeste 0 -- -- 81
2021-02-06 06:00:00 7.7 4 Oeste 13 Norte 0.2 -- -- 87
2021-02-06 05:00:00 8 4 Noroeste 25 Este 0.4 -- -- 86
2021-02-06 04:00:00 8.4 5 Sudeste 13 Nordeste 0.4 -- -- 83
2021-02-06 03:00:00 8.4 2 Este 10 Nordeste 0 -- -- 79
2021-02-06 02:00:00 9.3 3 Norte 8 Norte 0 -- -- 72
2021-02-06 01:00:00 9.6 2 Nordeste 12 Oeste 0 -- -- 71
2021-02-06 00:00:00 9.8 4 Sudeste 13 Sudeste 0 -- -- 70
2021-02-05 23:00:00 8.2 4 Este 10 Sudeste 0 -- -- 88
2021-02-05 22:00:00 8.1 3 Nordeste 9 Nordeste 0 -- -- 86
2021-02-05 21:00:00 8.8 8 Nordeste 17 Nordeste 0 -- -- 84
2021-02-05 20:00:00 9.6 4 Este 12 Sudeste 0 -- -- 78
2021-02-05 19:00:00 12.3 5 Este 13 Nordeste 0 -- -- 63
2021-02-05 18:00:00 15.9 5 Nordeste 27 Sudeste 0 -- -- 42
2021-02-05 17:00:00 17 7 Este 28 Sudeste 0 -- -- 39
2021-02-05 16:00:00 17.9 9 Sur 23 Sur 0 -- -- 38
2021-02-05 15:00:00 18.2 8 Este 33 Sudeste 0 -- -- 37
2021-02-05 14:00:00 17.8 7 Este 26 Sudeste 0 -- -- 38
2021-02-05 13:00:00 17.1 9 Sur 28 Sudeste 0 -- -- 40
2021-02-05 12:00:00 14.9 6 Este 18 Nordeste 0 -- -- 48
2021-02-05 11:00:00 11.4 4 Nordeste 9 Nordeste 0 -- -- 63
2021-02-05 10:00:00 7.1 0 Calma 6 Nordeste 0 -- -- 82
2021-02-05 09:00:00 5.4 2 Este 4 Nordeste 0 -- -- 88
2021-02-05 08:00:00 4.9 0 Calma 6 Nordeste 0 -- -- 88
2021-02-05 07:00:00 5.5 0 Calma 6 Sudeste 0 -- -- 86
2021-02-05 06:00:00 4.8 2 Nordeste 5 Nordeste 0 -- -- 88
2021-02-05 05:00:00 4.6 0 Calma 5 Nordeste 0 -- -- 88
2021-02-05 04:00:00 4.4 2 Este 6 Este 0 -- -- 89
2021-02-05 03:00:00 4.4 4 Nordeste 9 Norte 0 -- -- 89
2021-02-05 02:00:00 4.7 2 Este 8 Nordeste 0 -- -- 86
2021-02-05 01:00:00 5.8 5 Este 10 Nordeste 0 -- -- 84
2021-02-05 00:00:00 6.8 2 Norte 8 Nordeste 0 -- -- 81
2021-02-04 23:00:00 7.4 4 Este 9 Norte 0 -- -- 78
2021-02-04 22:00:00 8.8 3 Este 8 Sudeste 0 -- -- 72
2021-02-04 21:00:00 9.3 5 Nordeste 13 Nordeste 0 -- -- 65
2021-02-04 20:00:00 10.6 6 Nordeste 12 Nordeste 0 -- -- 57
2021-02-04 19:00:00 14 2 Sur 14 Sudoeste 0 -- -- 45
2021-02-04 18:00:00 16.6 10 Sudoeste 30 Sudoeste 0 -- -- 36
2021-02-04 17:00:00 18.8 14 Oeste 33 Sudoeste 0 -- -- 28
2021-02-04 16:00:00 19.2 5 Sur 24 Sur 0 -- -- 37
2021-02-04 15:00:00 18.9 9 Sudeste 26 Sudeste 0 -- -- 35
2021-02-04 14:00:00 18.3 9 Sudeste 21 Sudeste 0 -- -- 38
2021-02-04 13:00:00 15.4 5 Sudeste 15 Sudeste 0 -- -- 48
2021-02-04 12:00:00 12.7 3 Sur 11 Sudeste 0 -- -- 64
2021-02-04 11:00:00 9.9 0 Calma 11 Sudeste 0 -- -- 76
2021-02-04 10:00:00 7.7 0 Calma 7 Sudeste 0 -- -- 84
2021-02-04 09:00:00 6.6 2 Este 5 Nordeste 0 -- -- 85
2021-02-04 08:00:00 7.4 0 Calma 5 Sudeste 0 -- -- 83
2021-02-04 07:00:00 8.2 2 Oeste 10 Sudoeste 0 -- -- 80
2021-02-04 06:00:00 8.6 5 Oeste 9 Sudoeste 0 -- -- 78
2021-02-04 05:00:00 8.6 3 Oeste 12 Sudoeste 0 -- -- 78
2021-02-04 04:00:00 8.9 3 Oeste 13 Este 0 -- -- 77
2021-02-04 03:00:00 8.7 5 Oeste 13 Sudoeste 0 -- -- 77
2021-02-04 02:00:00 8.6 5 Oeste 13 Sudoeste 0 -- -- 77
2021-02-04 01:00:00 9.2 4 Oeste 11 Oeste 0 -- -- 74
2021-02-04 00:00:00 9.3 4 Sudoeste 9 Sudoeste 0 -- -- 75
2021-02-03 23:00:00 9.9 3 Sudoeste 9 Sur 0 -- -- 74
2021-02-03 22:00:00 9.4 5 Oeste 9 Sudoeste 0 -- -- 77
2021-02-03 21:00:00 10.2 3 Sur 8 Sudoeste 0 -- -- 74
2021-02-03 20:00:00 10.4 3 Este 9 Nordeste 0 -- -- 74
2021-02-03 19:00:00 11.8 0 Calma 14 Sur 0 -- -- 68
2021-02-03 18:00:00 13.4 7 Oeste 23 Sudoeste 0 -- -- 63
2021-02-03 17:00:00 14.4 11 Oeste 28 Sudoeste 0 -- -- 58
2021-02-03 16:00:00 14.8 15 Oeste 35 Sudoeste 0 -- -- 57
2021-02-03 15:00:00 14.9 16 Oeste 42 Sudoeste 0 -- -- 56
2021-02-03 14:00:00 14.4 21 Oeste 50 Oeste 0 -- -- 57
2021-02-03 13:00:00 13.5 21 Oeste 42 Sudoeste 0 -- -- 60
2021-02-03 12:00:00 13.2 11 Oeste 31 Oeste 0 -- -- 61
2021-02-03 11:00:00 11.4 13 Oeste 37 Sudoeste 0 -- -- 66
2021-02-03 10:00:00 10.3 9 Este 25 Sudeste 0 -- -- 70
2021-02-03 09:00:00 9.6 4 Sudeste 18 Sudeste 0 -- -- 71
2021-02-03 08:00:00 9.3 3 Nordeste 23 Sudoeste 0 -- -- 72
2021-02-03 07:00:00 9.4 6 Este 18 Sudeste 0 -- -- 71
2021-02-03 06:00:00 9.2 6 Noroeste 33 Sur 0 -- -- 71
2021-02-03 05:00:00 9.4 4 Noroeste 25 Oeste 0 -- -- 69
2021-02-03 04:00:00 9.8 8 Sudoeste 24 Sudoeste 0 -- -- 70
2021-02-03 03:00:00 9 5 Sudoeste 14 Sudoeste 0 -- -- 74
2021-02-03 02:00:00 9.5 6 Sudoeste 18 Sudoeste 0 -- -- 72
2021-02-03 01:00:00 10.5 10 Sudoeste 31 Sudoeste 0 -- -- 70
2021-02-03 00:00:00 10.6 10 Oeste 33 Sur 0 -- -- 70
2021-02-02 23:00:00 10.9 11 Oeste 36 Oeste 0 -- -- 69
2021-02-02 22:00:00 10.5 7 Oeste 26 Sudoeste 0 -- -- 70
2021-02-02 21:00:00 10.4 0 Calma 23 Sudoeste 0 -- -- 68
2021-02-02 20:00:00 10.8 8 Sudoeste 22 Sudoeste 0 -- -- 68
2021-02-02 19:00:00 11.6 14 Oeste 26 Oeste 0 -- -- 66
2021-02-02 18:00:00 12.9 11 Oeste 23 Sudoeste 0 -- -- 64
2021-02-02 17:00:00 13.7 13 Oeste 35 Sudoeste 0 -- -- 61
2021-02-02 16:00:00 14.4 17 Oeste 35 Sudoeste 0 -- -- 58
2021-02-02 15:00:00 14.6 15 Oeste 42 Sudoeste 0 -- -- 57
2021-02-02 14:00:00 13.6 20 Oeste 39 Sudoeste 0 -- -- 61
2021-02-02 13:00:00 12.3 21 Sudoeste 37 Sudoeste 0 -- -- 67
2021-02-02 12:00:00 11.8 19 Oeste 40 Sudoeste 0 -- -- 67
2021-02-02 11:00:00 11.1 19 Oeste 36 Sudoeste 0 -- -- 71
2021-02-02 10:00:00 10.3 10 Oeste 21 Sudoeste 0 -- -- 76
2021-02-02 09:00:00 8.6 2 Norte 14 Sudoeste 0 -- -- 83
2021-02-02 08:00:00 7.2 0 Calma 14 Sudoeste 0 -- -- 86
2021-02-02 07:00:00 8 4 Sudoeste 16 Sur 0 -- -- 83
2021-02-02 06:00:00 7.5 5 Sur 10 Sur 0 -- -- 84
2021-02-02 05:00:00 6.7 2 Sudoeste 7 Oeste 0 -- -- 84
2021-02-02 04:00:00 6.3 3 Oeste 8 Oeste 0 -- -- 84
2021-02-02 03:00:00 7.3 0 Calma 17 Sur 0 -- -- 79
2021-02-02 02:00:00 8.9 9 Oeste 17 Oeste 0 -- -- 73
2021-02-02 01:00:00 8.7 5 Oeste 15 Oeste 0 -- -- 74
2021-02-02 00:00:00 9.4 5 Sudoeste 13 Oeste 0 -- -- 73
2021-02-01 23:00:00 10.3 4 Oeste 17 Sudoeste 0 -- -- 70
2021-02-01 22:00:00 10.8 10 Sudoeste 24 Sur 0 -- -- 67
2021-02-01 21:00:00 11.2 9 Oeste 29 Sudoeste 0 -- -- 65
2021-02-01 20:00:00 11.3 3 Norte 23 Sudoeste 0 -- -- 65
2021-02-01 19:00:00 12.1 8 Noroeste 30 Oeste 0 -- -- 61
2021-02-01 18:00:00 13.1 9 Oeste 32 Oeste 0 -- -- 60
2021-02-01 17:00:00 14.4 12 Oeste 46 Sudoeste 0 -- -- 57
2021-02-01 16:00:00 14.8 15 Oeste 42 Oeste 0 -- -- 55
2021-02-01 15:00:00 13.1 17 Oeste 51 Oeste 0 -- -- 61
2021-02-01 14:00:00 13.2 25 Oeste 50 Oeste 0 -- -- 59
2021-02-01 13:00:00 13.7 15 Oeste 56 Oeste 0 -- -- 56
2021-02-01 12:00:00 12.4 11 Sudoeste 53 Oeste 0 -- -- 58
2021-02-01 11:00:00 11.3 19 Oeste 48 Oeste 0 -- -- 59
2021-02-01 10:00:00 10.2 5 Noroeste 37 Sudoeste 0 -- -- 62
2021-02-01 09:00:00 9.8 16 Oeste 42 Oeste 0 -- -- 63
2021-02-01 08:00:00 9.7 12 Oeste 35 Oeste 0 -- -- 63
2021-02-01 07:00:00 9.6 18 Sudoeste 38 Sudoeste 0 -- -- 64
2021-02-01 06:00:00 10 13 Oeste 35 Oeste 0 -- -- 63
2021-02-01 05:00:00 10.3 18 Oeste 39 Oeste 0 -- -- 63
2021-02-01 04:00:00 10.8 17 Oeste 48 Sudoeste 0 -- -- 61
2021-02-01 03:00:00 11.3 16 Oeste 50 Sudoeste 0 -- -- 59
2021-02-01 02:00:00 11.9 22 Oeste 68 Sudoeste 0 -- -- 56
2021-02-01 01:00:00 12.1 25 Oeste 57 Oeste 0 -- -- 56
2021-02-01 00:00:00 12.3 27 Sudoeste 63 Sudoeste 0 -- -- 56